Terminal Aerodrome Forecast
Issued by NWS

Home | Current Version | Previous Version | Text Only | Print | Product List | Glossary On
Versions: 1 2 3 4 5 6 7 8 9 10 11 12
000
FTUS45 KTFX 061100
TAFHLN
TAF
KHLN 061124Z 0612/0712 25010KT P6SM SCT150
     FM061600 28012KT P6SM BKN150
     FM070200 26005KT P6SM SCT150=

USA.gov is the U.S. government's official web portal to all federal, state and local government web resources and services.